createdAt,value
2022-10-01T00:01:31.241Z,100388.88
2022-10-01T00:04:37.097Z,100393.88
2022-10-01T00:07:40.421Z,100382.88
2022-10-01T00:10:44.273Z,100381.13
2022-10-01T00:13:49.761Z,100389.25
2022-10-01T00:16:53.340Z,100381.41
2022-10-01T00:19:56.298Z,100373.69
2022-10-01T00:22:59.242Z,100373.91
2022-10-01T00:26:14.826Z,100375.03
2022-10-01T00:29:19.072Z,100374.47
2022-10-01T00:32:22.374Z,100364.88
2022-10-01T00:35:25.516Z,100371.16
2022-10-01T00:38:29.218Z,100370.22
2022-10-01T00:41:36.005Z,100366.34
2022-10-01T00:44:40.365Z,100359.69
2022-10-01T00:47:47.327Z,100364.59
2022-10-01T00:50:51.211Z,100362.09
2022-10-01T00:54:03.036Z,100362.22
2022-10-01T00:57:09.098Z,100349.44
2022-10-01T01:00:15.586Z,100349.63
2022-10-01T01:03:19.015Z,100348.81
2022-10-01T01:06:21.982Z,100347.13
2022-10-01T01:09:29.236Z,100343.09
2022-10-01T01:12:54.997Z,100334.28
2022-10-01T01:16:06.970Z,100342.22
2022-10-01T01:19:23.723Z,100344.19
2022-10-01T01:22:30.113Z,100333.06
2022-10-01T01:25:45.656Z,100333.28
2022-10-01T01:28:55.099Z,100343.72
2022-10-01T01:32:09.448Z,100333.53
2022-10-01T01:35:24.294Z,100331.69
2022-10-01T01:38:32.542Z,100318.84
2022-10-01T01:41:41.984Z,100315.16
2022-10-01T01:44:48.287Z,100294.63
2022-10-01T01:47:56.038Z,100287.41
2022-10-01T01:51:07.704Z,100293.31
2022-10-01T01:54:10.938Z,100284.63
2022-10-01T01:57:15.223Z,100281.69
2022-10-01T02:00:19.732Z,100274.75
2022-10-01T02:03:26.793Z,100272.75
2022-10-01T02:06:36.689Z,100260.34
2022-10-01T02:09:52.843Z,100263.25
2022-10-01T02:13:13.755Z,100263.06
2022-10-01T02:16:28.748Z,100249.81
2022-10-01T02:19:40.258Z,100248.78
2022-10-01T02:22:50.816Z,100246.31
2022-10-01T02:25:59.576Z,100251.78
2022-10-01T02:29:08.392Z,100252.13
2022-10-01T02:32:15.118Z,100247.66
2022-10-01T02:35:20.667Z,100248.25
2022-10-01T02:38:25.744Z,100248.78
2022-10-01T02:41:35.540Z,100251.09
2022-10-01T02:44:42.727Z,100240.28
2022-10-01T02:47:52.021Z,100242.25
2022-10-01T02:51:02.316Z,100231.03
2022-10-01T02:54:13.893Z,100241.59
2022-10-01T02:57:28.913Z,100232.38
2022-10-01T03:00:32.081Z,100236.72
2022-10-01T03:03:36.398Z,100232.47
2022-10-01T03:06:39.394Z,100235.16
2022-10-01T03:09:42.354Z,100225.53
2022-10-01T03:12:46.571Z,100219.75
2022-10-01T03:15:49.637Z,100218.53
2022-10-01T03:18:54.068Z,100211.91
2022-10-01T03:21:57.303Z,100210.44
2022-10-01T03:25:00.833Z,100207.88
2022-10-01T03:28:03.807Z,100204.03
2022-10-01T03:31:09.265Z,100196.06
2022-10-01T03:34:13.591Z,100195.03
2022-10-01T03:37:16.506Z,100187.38
2022-10-01T03:40:19.941Z,100186.72
2022-10-01T03:43:23.052Z,100186.00
2022-10-01T03:46:26.253Z,100186.72
2022-10-01T03:49:30.476Z,100177.94
2022-10-01T03:52:33.439Z,100175.88
2022-10-01T03:55:36.348Z,100177.53
2022-10-01T03:58:39.286Z,100171.09
2022-10-01T04:01:42.283Z,100158.88
2022-10-01T04:04:46.923Z,100171.63
2022-10-01T04:07:49.969Z,100172.56
2022-10-01T04:10:53.182Z,100168.81
2022-10-01T04:13:57.796Z,100161.88
2022-10-01T04:17:00.726Z,100168.63
2022-10-01T04:20:05.757Z,100168.41
2022-10-01T04:23:08.685Z,100158.03
2022-10-01T04:26:11.895Z,100160.63
2022-10-01T04:29:15.014Z,100159.72
2022-10-01T04:32:21.547Z,100160.53
2022-10-01T04:35:27.187Z,100159.50
2022-10-01T04:38:30.206Z,100170.50
2022-10-01T04:41:33.857Z,100180.22
2022-10-01T04:44:36.965Z,100174.94
2022-10-01T04:47:40.203Z,100177.44
2022-10-01T04:50:44.565Z,100178.25
2022-10-01T04:53:47.783Z,100176.28
2022-10-01T04:56:50.684Z,100167.59
2022-10-01T04:59:53.642Z,100171.94
2022-10-01T05:02:57.128Z,100171.72
2022-10-01T05:06:01.356Z,100161.25
2022-10-01T05:09:04.719Z,100170.91
2022-10-01T05:12:08.651Z,100161.25
2022-10-01T05:15:12.327Z,100163.63
2022-10-01T05:18:16.383Z,100165.28
2022-10-01T05:21:20.600Z,100165.09
2022-10-01T05:24:23.874Z,100157.81
2022-10-01T05:27:27.158Z,100166.31
2022-10-01T05:30:30.613Z,100164.44
2022-10-01T05:33:34.392Z,100163.31
2022-10-01T05:36:38.672Z,100161.66
2022-10-01T05:39:41.609Z,100170.06
2022-10-01T05:42:47.445Z,100160.28
2022-10-01T05:45:51.398Z,100162.28
2022-10-01T05:48:54.402Z,100155.84
2022-10-01T05:52:00.877Z,100158.22
2022-10-01T05:55:04.037Z,100146.72
2022-10-01T05:58:10.405Z,100143.69
2022-10-01T06:01:13.515Z,100138.06
2022-10-01T06:04:16.512Z,100144.47
2022-10-01T06:07:20.747Z,100135.53
2022-10-01T06:10:24.958Z,100137.78
2022-10-01T06:13:28.370Z,100131.34
2022-10-01T06:16:31.340Z,100131.00
2022-10-01T06:19:34.350Z,100134.00
2022-10-01T06:22:38.623Z,100128.34
2022-10-01T06:25:43.815Z,100121.06
2022-10-01T06:28:48.360Z,100125.09
2022-10-01T06:31:51.769Z,100131.38
2022-10-01T06:34:55.391Z,100142.38
2022-10-01T06:38:01.572Z,100138.38
2022-10-01T06:41:05.273Z,100141.47
2022-10-01T06:44:08.320Z,100136.06
2022-10-01T06:47:11.261Z,100132.31
2022-10-01T06:50:14.219Z,100133.72
2022-10-01T06:53:19.734Z,100139.38
2022-10-01T06:56:22.685Z,100134.69
2022-10-01T06:59:26.902Z,100134.47
2022-10-01T07:02:30.179Z,100129.63
2022-10-01T07:05:33.356Z,100125.97
2022-10-01T07:08:37.642Z,100120.53
2022-10-01T07:11:41.530Z,100114.25
2022-10-01T07:14:44.882Z,100124.22
2022-10-01T07:17:50.837Z,100109.19
2022-10-01T07:20:54.247Z,100101.28
2022-10-01T07:23:58.675Z,100099.28
2022-10-01T07:27:06.502Z,100097.38
2022-10-01T07:30:11.677Z,100101.06
2022-10-01T07:33:15.402Z,100092.91
2022-10-01T07:36:18.347Z,100092.56
2022-10-01T07:39:22.745Z,100087.00
2022-10-01T07:42:27.449Z,100079.63
2022-10-01T07:45:31.599Z,100083.66
2022-10-01T07:48:34.566Z,100088.38
2022-10-01T07:51:38.648Z,100072.31
2022-10-01T07:54:43.577Z,100069.81
2022-10-01T07:57:52.234Z,100063.75
2022-10-01T08:00:58.481Z,100066.81
2022-10-01T08:04:22.034Z,100067.16
2022-10-01T08:07:25.008Z,100063.00
2022-10-01T08:10:29.992Z,100055.63
2022-10-01T08:13:34.013Z,100055.13
2022-10-01T08:16:39.577Z,100059.84
2022-10-01T08:19:42.977Z,100056.72
2022-10-01T08:22:45.880Z,100048.19
2022-10-01T08:25:50.144Z,100047.66
2022-10-01T08:28:53.372Z,100046.34
2022-10-01T08:31:56.962Z,100043.06
2022-10-01T08:35:01.258Z,100058.19
2022-10-01T08:38:05.689Z,100055.22
2022-10-01T08:41:26.465Z,100061.84
2022-10-01T08:44:34.048Z,100054.31
2022-10-01T08:47:40.021Z,100050.50
2022-10-01T08:50:52.894Z,100048.19
2022-10-01T08:54:00.625Z,100052.06
2022-10-01T08:57:12.855Z,100042.22
2022-10-01T09:00:18.489Z,100040.09
2022-10-01T09:03:21.606Z,100040.84
2022-10-01T09:06:27.349Z,100037.31
2022-10-01T09:09:45.103Z,100028.94
2022-10-01T09:12:58.043Z,100030.34
2022-10-01T09:16:13.612Z,100026.25
2022-10-01T09:19:33.670Z,100021.56
2022-10-01T09:22:41.611Z,100015.53
2022-10-01T09:25:50.183Z,100013.34
2022-10-01T09:28:56.012Z,100006.59
2022-10-01T09:32:02.151Z,99992.72
2022-10-01T09:35:21.651Z,100002.34
2022-10-01T09:38:33.299Z,100003.03
2022-10-01T09:41:36.750Z,99998.47
2022-10-01T09:44:42.714Z,99981.94
2022-10-01T09:47:48.675Z,100001.75
2022-10-01T09:50:56.380Z,99982.47
2022-10-01T09:54:06.487Z,99989.50
2022-10-01T09:57:14.282Z,99987.31
2022-10-01T10:00:22.628Z,99985.44
2022-10-01T10:03:29.867Z,99978.81
2022-10-01T10:06:33.332Z,99970.47
2022-10-01T10:09:37.196Z,99968.09
2022-10-01T10:12:42.032Z,99960.28
2022-10-01T10:15:54.229Z,99958.38
2022-10-01T10:19:02.209Z,99954.09
2022-10-01T10:22:14.195Z,99937.75
2022-10-01T10:25:24.640Z,99922.09
2022-10-01T10:28:29.804Z,99911.22
2022-10-01T10:31:43.036Z,99885.81
2022-10-01T10:34:47.823Z,99875.50
2022-10-01T10:37:53.544Z,99870.41
2022-10-01T10:40:57.628Z,99847.75
2022-10-01T10:44:04.665Z,99852.53
2022-10-01T10:47:11.974Z,99825.34
2022-10-01T10:50:31.257Z,99811.34
2022-10-01T10:53:44.774Z,99793.50
2022-10-01T10:57:00.609Z,99779.38
2022-10-01T11:00:13.841Z,99757.28
2022-10-01T11:03:22.245Z,99743.94
2022-10-01T11:06:25.764Z,99746.69
2022-10-01T11:09:35.830Z,99735.59
2022-10-01T11:12:57.344Z,99731.75
2022-10-01T11:16:42.874Z,99716.38
2022-10-01T11:20:03.373Z,99702.38
2022-10-01T11:23:37.484Z,99696.50
2022-10-01T11:26:53.506Z,99692.66
2022-10-01T11:30:07.440Z,99685.09
2022-10-01T11:33:22.108Z,99682.47
2022-10-01T11:36:34.940Z,99664.78
2022-10-01T11:39:41.499Z,99670.00
2022-10-01T11:42:46.699Z,99656.41
2022-10-01T11:45:54.438Z,99661.06
2022-10-01T11:49:05.294Z,99660.66
2022-10-01T11:52:19.119Z,99670.28
2022-10-01T11:55:43.522Z,99666.16
2022-10-01T11:58:57.231Z,99661.91
2022-10-01T12:02:14.384Z,99665.63
2022-10-01T12:05:20.877Z,99664.94
2022-10-01T12:08:31.802Z,99658.75
2022-10-01T12:11:43.672Z,99665.47
2022-10-01T12:14:54.326Z,99670.00
2022-10-01T12:18:06.003Z,99666.72
2022-10-01T12:21:15.331Z,99665.22
2022-10-01T12:24:23.598Z,99667.81
2022-10-01T12:27:49.586Z,99678.25
2022-10-01T12:30:59.852Z,99669.44
2022-10-01T12:34:17.705Z,99680.16
2022-10-01T12:37:34.065Z,99683.97
2022-10-01T12:40:46.682Z,99668.47
2022-10-01T12:44:18.941Z,99680.03
2022-10-01T12:47:38.269Z,99669.72
2022-10-01T12:50:53.502Z,99659.03
2022-10-01T12:54:08.590Z,99648.84
2022-10-01T12:57:34.918Z,99631.56
2022-10-01T13:00:44.135Z,99632.41
2022-10-01T13:04:18.060Z,99635.16
2022-10-01T13:07:46.822Z,99627.75
2022-10-01T13:11:02.296Z,99622.53
2022-10-01T13:14:12.937Z,99619.81
2022-10-01T13:17:24.402Z,99619.81
2022-10-01T13:20:41.052Z,99630.91
2022-10-01T13:23:50.893Z,99622.41
2022-10-01T13:27:01.371Z,99616.91
2022-10-01T13:30:15.370Z,99611.53
2022-10-01T13:33:26.188Z,99611.53
2022-10-01T13:36:32.472Z,99605.25
2022-10-01T13:39:38.954Z,99612.91
2022-10-01T13:42:47.143Z,99604.94
2022-10-01T13:45:53.541Z,99604.41
2022-10-01T13:48:57.200Z,99614.28
2022-10-01T13:52:02.206Z,99615.63
2022-10-01T13:55:08.834Z,99615.34
2022-10-01T13:58:25.489Z,99604.34
2022-10-01T14:01:42.187Z,99605.72
2022-10-01T14:04:48.078Z,99612.31
2022-10-01T14:07:57.718Z,99610.78
2022-10-01T14:11:23.979Z,99611.03
2022-10-01T14:14:59.022Z,99610.38
2022-10-01T14:18:10.108Z,99612.69
2022-10-01T14:21:35.240Z,99606.94
2022-10-01T14:25:02.866Z,99611.88
2022-10-01T14:28:33.493Z,99608.28
2022-10-01T14:31:51.034Z,99607.03
2022-10-01T14:35:10.337Z,99607.84
2022-10-01T14:38:16.037Z,99602.88
2022-10-01T14:41:21.479Z,99600.66
2022-10-01T14:44:28.269Z,99602.84
2022-10-01T14:47:35.582Z,99600.91
2022-10-01T14:50:40.675Z,99600.91
2022-10-01T14:53:44.433Z,99597.88
2022-10-01T14:56:47.815Z,99596.53
2022-10-01T14:59:50.914Z,99594.59
2022-10-01T15:03:03.910Z,99601.44
2022-10-01T15:06:14.846Z,99601.16
2022-10-01T15:09:19.462Z,99591.25
2022-10-01T15:12:24.426Z,99597.81
2022-10-01T15:15:34.097Z,99591.78
2022-10-01T15:18:38.532Z,99596.72
2022-10-01T15:21:49.389Z,99600.00
2022-10-01T15:24:56.973Z,99601.94
2022-10-01T15:28:00.060Z,99614.41
2022-10-01T15:31:05.218Z,99617.03
2022-10-01T15:34:13.029Z,99619.03
2022-10-01T15:37:31.249Z,99620.25
2022-10-01T15:40:35.341Z,99622.72
2022-10-01T15:43:39.782Z,99627.38
2022-10-01T15:46:43.161Z,99628.91
2022-10-01T15:50:03.167Z,99627.09
2022-10-01T15:53:16.488Z,99630.53
2022-10-01T15:56:23.692Z,99638.09
2022-10-01T15:59:26.966Z,99635.47
2022-10-01T16:02:32.212Z,99629.06
2022-10-01T16:05:47.338Z,99635.38
2022-10-01T16:09:03.445Z,99628.50
2022-10-01T16:12:21.397Z,99626.34
2022-10-01T16:15:27.264Z,99639.69
2022-10-01T16:18:32.832Z,99639.16
2022-10-01T16:21:41.323Z,99648.94
2022-10-01T16:24:48.353Z,99649.88
2022-10-01T16:27:55.052Z,99658.16
2022-10-01T16:30:58.595Z,99657.63
2022-10-01T16:34:01.556Z,99661.09
2022-10-01T16:37:09.438Z,99670.22
2022-10-01T16:40:16.208Z,99669.66
2022-10-01T16:43:23.360Z,99675.44
2022-10-01T16:46:26.369Z,99663.78
2022-10-01T16:49:29.319Z,99669.56
2022-10-01T16:52:32.263Z,99678.78
2022-10-01T16:55:37.968Z,99681.09
2022-10-01T16:58:41.750Z,99681.38
2022-10-01T17:01:45.213Z,99690.88
2022-10-01T17:04:48.284Z,99690.56
2022-10-01T17:07:52.401Z,99688.94
2022-10-01T17:11:00.036Z,99688.94
2022-10-01T17:14:04.625Z,99687.97
2022-10-01T17:17:07.886Z,99680.69
2022-10-01T17:20:11.391Z,99684.94
2022-10-01T17:23:16.802Z,99686.34
2022-10-01T17:26:21.453Z,99679.06
2022-10-01T17:29:24.397Z,99676.19
2022-10-01T17:32:27.510Z,99671.38
2022-10-01T17:35:31.116Z,99670.56
2022-10-01T17:38:34.479Z,99668.63
2022-10-01T17:41:38.758Z,99669.19
2022-10-01T17:44:41.807Z,99670.53
2022-10-01T17:47:46.470Z,99671.09
2022-10-01T17:50:49.948Z,99674.50
2022-10-01T17:53:54.846Z,99673.69
2022-10-01T17:56:59.078Z,99670.78
2022-10-01T18:00:02.839Z,99676.00
2022-10-01T18:03:18.046Z,99674.78
2022-10-01T18:06:21.217Z,99674.91
2022-10-01T18:09:24.556Z,99683.16
2022-10-01T18:12:28.811Z,99682.44
2022-10-01T18:15:31.782Z,99689.72
2022-10-01T18:21:58.541Z,99714.28
2022-10-01T18:25:03.466Z,99717.28
2022-10-01T18:28:07.762Z,99715.78
2022-10-01T18:31:20.514Z,99711.09
2022-10-01T18:34:27.761Z,99718.91
2022-10-01T18:37:41.842Z,99730.03
2022-10-01T18:40:54.654Z,99736.31
2022-10-01T18:43:59.928Z,99732.56
2022-10-01T18:47:22.239Z,99749.31
2022-10-01T18:50:36.372Z,99770.47
2022-10-01T18:54:09.801Z,99778.81
2022-10-01T18:57:30.219Z,99787.88
2022-10-01T19:00:43.314Z,99789.25
2022-10-01T19:04:17.629Z,99807.38
2022-10-01T19:07:39.942Z,99808.50
2022-10-01T19:10:50.565Z,99819.19
2022-10-01T19:14:04.771Z,99828.00
2022-10-01T19:17:28.421Z,99834.88
2022-10-01T19:20:46.231Z,99832.50
2022-10-01T19:24:22.403Z,99839.81
2022-10-01T19:27:41.644Z,99842.13
2022-10-01T19:31:08.871Z,99842.94
2022-10-01T19:34:20.652Z,99847.22
2022-10-01T19:37:30.942Z,99859.75
2022-10-01T19:40:40.397Z,99850.28
2022-10-01T19:43:53.677Z,99868.84
2022-10-01T19:47:07.080Z,99878.72
2022-10-01T19:50:21.551Z,99875.28
2022-10-01T19:53:29.867Z,99888.78
2022-10-01T19:56:37.927Z,99902.53
2022-10-01T19:59:42.301Z,99914.38
2022-10-01T20:02:57.014Z,99908.47
2022-10-01T20:06:07.527Z,99930.75
2022-10-01T20:09:23.360Z,99936.91
2022-10-01T20:12:34.091Z,99937.75
2022-10-01T20:15:45.632Z,99953.00
2022-10-01T20:18:59.264Z,99958.38
2022-10-01T20:22:11.129Z,99968.25
2022-10-01T20:25:25.465Z,99970.28
2022-10-01T20:28:37.459Z,99976.19
2022-10-01T20:31:48.241Z,99973.72
2022-10-01T20:35:05.702Z,99978.22
2022-10-01T20:38:16.186Z,99987.31
2022-10-01T20:41:21.257Z,99991.81
2022-10-01T20:44:29.651Z,99989.34
2022-10-01T20:47:37.932Z,100002.78
2022-10-01T20:50:44.857Z,99994.13
2022-10-01T20:53:55.554Z,100003.75
2022-10-01T20:57:09.198Z,100010.91
2022-10-01T21:00:20.013Z,100020.59
2022-10-01T21:03:31.804Z,100021.56
2022-10-01T21:06:39.768Z,100026.91
2022-10-01T21:09:49.072Z,100038.56
2022-10-01T21:13:08.566Z,100039.66
2022-10-01T21:16:48.421Z,100040.03
2022-10-01T21:20:15.968Z,100044.16
2022-10-01T21:23:45.462Z,100058.69
2022-10-01T21:27:06.772Z,100063.22
2022-10-01T21:30:13.284Z,100066.75
2022-10-01T21:33:24.773Z,100065.25
2022-10-01T21:36:35.892Z,100074.84
2022-10-01T21:39:49.217Z,100083.63
2022-10-01T21:43:05.863Z,100077.84
2022-10-01T21:46:19.090Z,100085.81
2022-10-01T21:49:37.881Z,100092.91
2022-10-01T21:52:55.295Z,100098.84
2022-10-01T21:56:31.375Z,100103.34
2022-10-01T21:59:59.145Z,100104.16
2022-10-01T22:03:19.010Z,100105.00
2022-10-01T22:06:29.460Z,100117.34
2022-10-01T22:09:40.344Z,100123.13
2022-10-01T22:12:48.695Z,100132.97
2022-10-01T22:15:56.248Z,100131.34
2022-10-01T22:19:07.367Z,100132.97
2022-10-01T22:22:15.934Z,100128.22
2022-10-01T22:25:19.753Z,100137.97
2022-10-01T22:28:28.403Z,100148.94
2022-10-01T22:31:36.459Z,100154.97
2022-10-01T22:34:44.167Z,100165.69
2022-10-01T22:37:53.760Z,100169.25
2022-10-01T22:41:03.346Z,100171.41
2022-10-01T22:44:14.418Z,100188.69
2022-10-01T22:47:39.839Z,100184.16
2022-10-01T22:51:06.610Z,100193.66
2022-10-01T22:54:31.146Z,100211.19
2022-10-01T22:57:58.231Z,100210.50
2022-10-01T23:01:16.795Z,100214.06
2022-10-01T23:04:39.774Z,100222.81
2022-10-01T23:07:54.012Z,100220.47
2022-10-01T23:11:11.161Z,100223.22
2022-10-01T23:14:31.499Z,100234.72
2022-10-01T23:17:43.307Z,100240.63
2022-10-01T23:21:09.509Z,100241.56
2022-10-01T23:24:27.144Z,100248.00
2022-10-01T23:27:41.135Z,100253.22
2022-10-01T23:30:56.222Z,100264.34
2022-10-01T23:34:16.599Z,100267.91
2022-10-01T23:37:43.430Z,100273.34
2022-10-01T23:40:51.690Z,100272.78
2022-10-01T23:44:05.169Z,100276.09
2022-10-01T23:47:17.339Z,100282.72
2022-10-01T23:50:24.015Z,100282.97
2022-10-01T23:53:37.193Z,100280.94
2022-10-01T23:56:49.125Z,100288.50
